sensor_id;sensor_type;location;lat;lon;timestamp;P1;durP1;ratioP1;P2;durP2;ratioP2
43226;SDS011;28839;52.404;9.808;2022-11-09T00:04:36;2.67;;;1.63;;
43226;SDS011;28839;52.404;9.808;2022-11-09T00:11:30;4.53;;;2.17;;
43226;SDS011;28839;52.404;9.808;2022-11-09T00:18:24;3.83;;;2.43;;
43226;SDS011;28839;52.404;9.808;2022-11-09T00:25:19;2.80;;;1.73;;
43226;SDS011;28839;52.404;9.808;2022-11-09T00:32:13;4.12;;;1.73;;
43226;SDS011;28839;52.404;9.808;2022-11-09T00:39:07;2.47;;;1.63;;
43226;SDS011;28839;52.404;9.808;2022-11-09T00:46:04;4.05;;;1.70;;
43226;SDS011;28839;52.404;9.808;2022-11-09T00:52:58;2.37;;;1.70;;
43226;SDS011;28839;52.404;9.808;2022-11-09T00:59:52;2.70;;;1.55;;
43226;SDS011;28839;52.404;9.808;2022-11-09T01:06:48;5.20;;;1.90;;
43226;SDS011;28839;52.404;9.808;2022-11-09T01:13:42;4.95;;;1.92;;
43226;SDS011;28839;52.404;9.808;2022-11-09T01:20:40;3.30;;;1.80;;
43226;SDS011;28839;52.404;9.808;2022-11-09T01:27:36;4.10;;;1.60;;
43226;SDS011;28839;52.404;9.808;2022-11-09T01:34:30;3.53;;;1.45;;
43226;SDS011;28839;52.404;9.808;2022-11-09T01:48:23;2.20;;;1.42;;
43226;SDS011;28839;52.404;9.808;2022-11-09T01:55:23;4.03;;;1.45;;
43226;SDS011;28839;52.404;9.808;2022-11-09T02:02:18;3.00;;;1.50;;
43226;SDS011;28839;52.404;9.808;2022-11-09T02:09:15;2.67;;;1.45;;
43226;SDS011;28839;52.404;9.808;2022-11-09T02:16:15;4.05;;;1.60;;
43226;SDS011;28839;52.404;9.808;2022-11-09T02:23:12;2.45;;;1.60;;
43226;SDS011;28839;52.404;9.808;2022-11-09T02:30:07;4.93;;;1.62;;
43226;SDS011;28839;52.404;9.808;2022-11-09T02:37:01;1.92;;;1.55;;
43226;SDS011;28839;52.404;9.808;2022-11-09T02:43:57;1.90;;;1.37;;
43226;SDS011;28839;52.404;9.808;2022-11-09T02:50:52;2.17;;;1.58;;
43226;SDS011;28839;52.404;9.808;2022-11-09T02:57:46;2.80;;;1.53;;
43226;SDS011;28839;52.404;9.808;2022-11-09T03:04:42;4.60;;;1.90;;
43226;SDS011;28839;52.404;9.808;2022-11-09T03:11:36;2.83;;;2.00;;
43226;SDS011;28839;52.404;9.808;2022-11-09T03:18:31;2.03;;;1.48;;
43226;SDS011;28839;52.404;9.808;2022-11-09T03:25:27;2.30;;;1.60;;
43226;SDS011;28839;52.404;9.808;2022-11-09T03:32:21;5.05;;;1.75;;
43226;SDS011;28839;52.404;9.808;2022-11-09T03:39:15;3.73;;;1.60;;
43226;SDS011;28839;52.404;9.808;2022-11-09T03:46:10;2.70;;;1.83;;
43226;SDS011;28839;52.404;9.808;2022-11-09T03:53:04;2.85;;;1.58;;
43226;SDS011;28839;52.404;9.808;2022-11-09T03:59:59;4.37;;;1.65;;
43226;SDS011;28839;52.404;9.808;2022-11-09T04:06:54;2.87;;;1.50;;
43226;SDS011;28839;52.404;9.808;2022-11-09T04:13:48;2.62;;;1.37;;
43226;SDS011;28839;52.404;9.808;2022-11-09T04:20:42;1.80;;;1.40;;
43226;SDS011;28839;52.404;9.808;2022-11-09T04:27:38;3.40;;;1.47;;
43226;SDS011;28839;52.404;9.808;2022-11-09T04:34:32;2.15;;;1.55;;
43226;SDS011;28839;52.404;9.808;2022-11-09T04:41:26;2.10;;;1.27;;
43226;SDS011;28839;52.404;9.808;2022-11-09T04:48:21;4.72;;;1.50;;
43226;SDS011;28839;52.404;9.808;2022-11-09T04:55:15;2.05;;;1.37;;
43226;SDS011;28839;52.404;9.808;2022-11-09T05:02:10;2.85;;;1.20;;
43226;SDS011;28839;52.404;9.808;2022-11-09T05:09:06;3.63;;;1.60;;
43226;SDS011;28839;52.404;9.808;2022-11-09T05:16:00;1.30;;;1.20;;
43226;SDS011;28839;52.404;9.808;2022-11-09T05:22:54;3.37;;;1.43;;
43226;SDS011;28839;52.404;9.808;2022-11-09T05:30:09;3.55;;;1.37;;
43226;SDS011;28839;52.404;9.808;2022-11-09T05:37:04;2.20;;;1.20;;
43226;SDS011;28839;52.404;9.808;2022-11-09T05:43:58;2.53;;;2.07;;
43226;SDS011;28839;52.404;9.808;2022-11-09T05:50:53;2.90;;;1.50;;
43226;SDS011;28839;52.404;9.808;2022-11-09T05:57:49;2.95;;;1.60;;
43226;SDS011;28839;52.404;9.808;2022-11-09T06:11:39;3.45;;;2.22;;
43226;SDS011;28839;52.404;9.808;2022-11-09T06:18:34;2.42;;;1.50;;
43226;SDS011;28839;52.404;9.808;2022-11-09T06:25:29;3.25;;;1.58;;
43226;SDS011;28839;52.404;9.808;2022-11-09T06:32:25;2.20;;;1.70;;
43226;SDS011;28839;52.404;9.808;2022-11-09T06:39:19;4.43;;;1.65;;
43226;SDS011;28839;52.404;9.808;2022-11-09T06:46:13;2.80;;;2.00;;
43226;SDS011;28839;52.404;9.808;2022-11-09T06:53:10;5.62;;;1.83;;
43226;SDS011;28839;52.404;9.808;2022-11-09T07:00:06;3.72;;;1.92;;
43226;SDS011;28839;52.404;9.808;2022-11-09T07:07:02;3.80;;;2.10;;
43226;SDS011;28839;52.404;9.808;2022-11-09T07:13:57;3.37;;;2.00;;
43226;SDS011;28839;52.404;9.808;2022-11-09T07:20:52;4.55;;;2.08;;
43226;SDS011;28839;52.404;9.808;2022-11-09T07:27:46;4.40;;;2.80;;
43226;SDS011;28839;52.404;9.808;2022-11-09T07:34:48;4.40;;;1.97;;
43226;SDS011;28839;52.404;9.808;2022-11-09T07:41:42;2.75;;;2.37;;
43226;SDS011;28839;52.404;9.808;2022-11-09T07:48:36;4.63;;;1.70;;
43226;SDS011;28839;52.404;9.808;2022-11-09T07:55:31;3.20;;;1.50;;
43226;SDS011;28839;52.404;9.808;2022-11-09T08:02:26;3.33;;;1.95;;
43226;SDS011;28839;52.404;9.808;2022-11-09T08:09:20;2.10;;;1.40;;
43226;SDS011;28839;52.404;9.808;2022-11-09T08:16:17;2.87;;;1.60;;
43226;SDS011;28839;52.404;9.808;2022-11-09T08:23:12;2.62;;;1.55;;
43226;SDS011;28839;52.404;9.808;2022-11-09T08:30:09;2.97;;;1.27;;
43226;SDS011;28839;52.404;9.808;2022-11-09T08:37:06;3.42;;;1.50;;
43226;SDS011;28839;52.404;9.808;2022-11-09T08:44:00;2.47;;;1.50;;
43226;SDS011;28839;52.404;9.808;2022-11-09T08:50:56;5.15;;;1.62;;
43226;SDS011;28839;52.404;9.808;2022-11-09T08:57:53;3.47;;;1.42;;
43226;SDS011;28839;52.404;9.808;2022-11-09T09:04:48;4.10;;;1.80;;
43226;SDS011;28839;52.404;9.808;2022-11-09T09:11:42;2.97;;;1.50;;
43226;SDS011;28839;52.404;9.808;2022-11-09T09:18:38;5.43;;;1.77;;
43226;SDS011;28839;52.404;9.808;2022-11-09T09:25:32;4.18;;;1.50;;
43226;SDS011;28839;52.404;9.808;2022-11-09T09:32:26;3.73;;;1.90;;
43226;SDS011;28839;52.404;9.808;2022-11-09T09:46:17;3.47;;;1.48;;
43226;SDS011;28839;52.404;9.808;2022-11-09T09:53:17;1.45;;;1.12;;
43226;SDS011;28839;52.404;9.808;2022-11-09T10:00:21;2.50;;;1.20;;
43226;SDS011;28839;52.404;9.808;2022-11-09T10:07:18;2.70;;;1.35;;
43226;SDS011;28839;52.404;9.808;2022-11-09T10:14:34;2.92;;;1.10;;
43226;SDS011;28839;52.404;9.808;2022-11-09T10:21:49;2.80;;;1.48;;
43226;SDS011;28839;52.404;9.808;2022-11-09T10:28:49;2.42;;;1.02;;
43226;SDS011;28839;52.404;9.808;2022-11-09T10:35:48;1.92;;;1.23;;
43226;SDS011;28839;52.404;9.808;2022-11-09T10:42:48;7.65;;;1.40;;
43226;SDS011;28839;52.404;9.808;2022-11-09T10:49:43;4.28;;;1.12;;
43226;SDS011;28839;52.404;9.808;2022-11-09T10:56:42;3.60;;;1.30;;
43226;SDS011;28839;52.404;9.808;2022-11-09T11:03:39;5.30;;;2.40;;
43226;SDS011;28839;52.404;9.808;2022-11-09T11:10:33;2.35;;;1.27;;
43226;SDS011;28839;52.404;9.808;2022-11-09T11:17:28;4.23;;;1.30;;
43226;SDS011;28839;52.404;9.808;2022-11-09T11:24:29;4.85;;;1.25;;
43226;SDS011;28839;52.404;9.808;2022-11-09T11:31:34;4.50;;;1.25;;
43226;SDS011;28839;52.404;9.808;2022-11-09T11:38:29;2.07;;;0.93;;
43226;SDS011;28839;52.404;9.808;2022-11-09T11:45:31;4.07;;;1.12;;
43226;SDS011;28839;52.404;9.808;2022-11-09T11:52:31;2.80;;;1.10;;
43226;SDS011;28839;52.404;9.808;2022-11-09T11:59:43;4.62;;;1.10;;
43226;SDS011;28839;52.404;9.808;2022-11-09T12:06:53;7.50;;;2.28;;
43226;SDS011;28839;52.404;9.808;2022-11-09T12:13:58;3.62;;;1.15;;
43226;SDS011;28839;52.404;9.808;2022-11-09T12:21:10;2.20;;;1.00;;
43226;SDS011;28839;52.404;9.808;2022-11-09T12:28:17;4.13;;;1.27;;
43226;SDS011;28839;52.404;9.808;2022-11-09T12:35:21;3.55;;;1.30;;
43226;SDS011;28839;52.404;9.808;2022-11-09T12:42:20;4.18;;;1.20;;
43226;SDS011;28839;52.404;9.808;2022-11-09T12:49:24;5.28;;;1.23;;
43226;SDS011;28839;52.404;9.808;2022-11-09T12:56:30;2.60;;;1.70;;
43226;SDS011;28839;52.404;9.808;2022-11-09T13:03:30;4.53;;;1.25;;
43226;SDS011;28839;52.404;9.808;2022-11-09T13:24:52;4.72;;;1.25;;
43226;SDS011;28839;52.404;9.808;2022-11-09T13:32:03;5.30;;;1.30;;
43226;SDS011;28839;52.404;9.808;2022-11-09T13:39:28;4.87;;;0.80;;
43226;SDS011;28839;52.404;9.808;2022-11-09T13:46:24;3.17;;;0.88;;
43226;SDS011;28839;52.404;9.808;2022-11-09T13:53:30;4.03;;;1.20;;
43226;SDS011;28839;52.404;9.808;2022-11-09T14:00:44;2.78;;;1.08;;
43226;SDS011;28839;52.404;9.808;2022-11-09T14:07:38;2.37;;;0.90;;
43226;SDS011;28839;52.404;9.808;2022-11-09T14:14:40;3.50;;;0.95;;
43226;SDS011;28839;52.404;9.808;2022-11-09T14:22:10;2.60;;;1.10;;
43226;SDS011;28839;52.404;9.808;2022-11-09T14:29:12;3.20;;;0.93;;
43226;SDS011;28839;52.404;9.808;2022-11-09T14:36:15;4.57;;;1.00;;
43226;SDS011;28839;52.404;9.808;2022-11-09T14:43:14;3.85;;;1.58;;
43226;SDS011;28839;52.404;9.808;2022-11-09T14:50:17;3.42;;;1.08;;
43226;SDS011;28839;52.404;9.808;2022-11-09T14:57:15;3.78;;;1.35;;
43226;SDS011;28839;52.404;9.808;2022-11-09T15:04:12;4.72;;;1.50;;
43226;SDS011;28839;52.404;9.808;2022-11-09T15:11:08;4.53;;;1.33;;
43226;SDS011;28839;52.404;9.808;2022-11-09T15:18:04;1.70;;;0.73;;
43226;SDS011;28839;52.404;9.808;2022-11-09T15:32:13;6.93;;;1.42;;
43226;SDS011;28839;52.404;9.808;2022-11-09T15:39:14;2.37;;;1.00;;
43226;SDS011;28839;52.404;9.808;2022-11-09T15:46:10;2.37;;;1.00;;
43226;SDS011;28839;52.404;9.808;2022-11-09T15:53:05;2.62;;;1.17;;
43226;SDS011;28839;52.404;9.808;2022-11-09T16:00:00;5.37;;;1.27;;
43226;SDS011;28839;52.404;9.808;2022-11-09T16:06:55;5.28;;;1.30;;
43226;SDS011;28839;52.404;9.808;2022-11-09T16:13:49;6.18;;;1.30;;
43226;SDS011;28839;52.404;9.808;2022-11-09T16:20:46;4.15;;;1.35;;
43226;SDS011;28839;52.404;9.808;2022-11-09T16:27:40;5.18;;;1.40;;
43226;SDS011;28839;52.404;9.808;2022-11-09T16:34:35;6.55;;;1.52;;
43226;SDS011;28839;52.404;9.808;2022-11-09T16:41:30;2.20;;;1.20;;
43226;SDS011;28839;52.404;9.808;2022-11-09T16:48:25;4.50;;;1.60;;
43226;SDS011;28839;52.404;9.808;2022-11-09T16:55:19;1.50;;;1.03;;
43226;SDS011;28839;52.404;9.808;2022-11-09T17:02:14;3.33;;;1.50;;
43226;SDS011;28839;52.404;9.808;2022-11-09T17:09:11;3.95;;;1.15;;
43226;SDS011;28839;52.404;9.808;2022-11-09T17:16:07;5.37;;;1.60;;
43226;SDS011;28839;52.404;9.808;2022-11-09T17:23:03;6.10;;;1.70;;
43226;SDS011;28839;52.404;9.808;2022-11-09T17:29:57;3.53;;;1.90;;
43226;SDS011;28839;52.404;9.808;2022-11-09T17:36:51;3.40;;;1.73;;
43226;SDS011;28839;52.404;9.808;2022-11-09T17:43:46;3.03;;;1.30;;
43226;SDS011;28839;52.404;9.808;2022-11-09T17:50:40;6.05;;;1.40;;
43226;SDS011;28839;52.404;9.808;2022-11-09T17:57:34;10.20;;;2.57;;
43226;SDS011;28839;52.404;9.808;2022-11-09T18:04:30;6.07;;;2.13;;
43226;SDS011;28839;52.404;9.808;2022-11-09T18:11:24;4.55;;;1.35;;
43226;SDS011;28839;52.404;9.808;2022-11-09T18:18:19;4.82;;;1.65;;
43226;SDS011;28839;52.404;9.808;2022-11-09T18:25:16;6.12;;;1.50;;
43226;SDS011;28839;52.404;9.808;2022-11-09T18:32:10;6.68;;;2.40;;
43226;SDS011;28839;52.404;9.808;2022-11-09T18:39:04;8.77;;;2.43;;
43226;SDS011;28839;52.404;9.808;2022-11-09T18:46:00;5.90;;;2.00;;
43226;SDS011;28839;52.404;9.808;2022-11-09T18:52:55;8.75;;;2.03;;
43226;SDS011;28839;52.404;9.808;2022-11-09T18:59:50;4.03;;;2.07;;
43226;SDS011;28839;52.404;9.808;2022-11-09T19:06:45;9.20;;;2.00;;
43226;SDS011;28839;52.404;9.808;2022-11-09T19:13:39;5.40;;;1.70;;
43226;SDS011;28839;52.404;9.808;2022-11-09T19:20:36;4.10;;;1.50;;
43226;SDS011;28839;52.404;9.808;2022-11-09T19:27:32;5.75;;;1.80;;
43226;SDS011;28839;52.404;9.808;2022-11-09T19:34:26;10.95;;;2.35;;
43226;SDS011;28839;52.404;9.808;2022-11-09T19:41:20;6.10;;;1.50;;
43226;SDS011;28839;52.404;9.808;2022-11-09T19:48:17;3.65;;;1.35;;
43226;SDS011;28839;52.404;9.808;2022-11-09T19:55:11;9.63;;;2.28;;
43226;SDS011;28839;52.404;9.808;2022-11-09T20:02:05;5.53;;;1.47;;
43226;SDS011;28839;52.404;9.808;2022-11-09T20:09:02;6.37;;;2.03;;
43226;SDS011;28839;52.404;9.808;2022-11-09T20:15:59;6.82;;;2.00;;
43226;SDS011;28839;52.404;9.808;2022-11-09T20:22:54;3.17;;;1.40;;
43226;SDS011;28839;52.404;9.808;2022-11-09T20:29:49;7.97;;;2.03;;
43226;SDS011;28839;52.404;9.808;2022-11-09T20:36:45;10.85;;;4.30;;
43226;SDS011;28839;52.404;9.808;2022-11-09T20:43:39;11.88;;;3.97;;
43226;SDS011;28839;52.404;9.808;2022-11-09T20:50:34;7.97;;;1.80;;
43226;SDS011;28839;52.404;9.808;2022-11-09T20:57:28;7.20;;;2.08;;
43226;SDS011;28839;52.404;9.808;2022-11-09T21:04:22;6.53;;;3.20;;
43226;SDS011;28839;52.404;9.808;2022-11-09T21:11:18;6.47;;;3.07;;
43226;SDS011;28839;52.404;9.808;2022-11-09T21:18:20;7.00;;;2.58;;
43226;SDS011;28839;52.404;9.808;2022-11-09T21:25:14;7.50;;;3.55;;
43226;SDS011;28839;52.404;9.808;2022-11-09T21:32:27;8.30;;;3.17;;
43226;SDS011;28839;52.404;9.808;2022-11-09T21:39:22;7.35;;;2.42;;
43226;SDS011;28839;52.404;9.808;2022-11-09T21:46:17;8.77;;;2.50;;
43226;SDS011;28839;52.404;9.808;2022-11-09T21:53:13;9.10;;;1.98;;
43226;SDS011;28839;52.404;9.808;2022-11-09T22:00:08;9.30;;;2.65;;
43226;SDS011;28839;52.404;9.808;2022-11-09T22:07:02;5.47;;;2.55;;
43226;SDS011;28839;52.404;9.808;2022-11-09T22:13:58;10.70;;;3.13;;
43226;SDS011;28839;52.404;9.808;2022-11-09T22:21:09;14.02;;;6.03;;
43226;SDS011;28839;52.404;9.808;2022-11-09T22:34:59;14.52;;;4.50;;
43226;SDS011;28839;52.404;9.808;2022-11-09T22:41:53;6.22;;;3.33;;
43226;SDS011;28839;52.404;9.808;2022-11-09T22:48:47;7.50;;;2.73;;
43226;SDS011;28839;52.404;9.808;2022-11-09T22:55:43;10.83;;;4.50;;
43226;SDS011;28839;52.404;9.808;2022-11-09T23:02:44;8.18;;;2.30;;
43226;SDS011;28839;52.404;9.808;2022-11-09T23:09:38;11.77;;;4.23;;
43226;SDS011;28839;52.404;9.808;2022-11-09T23:16:33;10.77;;;2.67;;
43226;SDS011;28839;52.404;9.808;2022-11-09T23:23:27;10.90;;;4.78;;
43226;SDS011;28839;52.404;9.808;2022-11-09T23:30:21;8.43;;;3.63;;
43226;SDS011;28839;52.404;9.808;2022-11-09T23:37:16;4.03;;;2.17;;
43226;SDS011;28839;52.404;9.808;2022-11-09T23:44:10;6.65;;;2.33;;
43226;SDS011;28839;52.404;9.808;2022-11-09T23:51:04;8.82;;;2.70;;
43226;SDS011;28839;52.404;9.808;2022-11-09T23:58:00;13.32;;;3.00;;
